Time;durP1;ratioP1;P1;durP2;ratioP2;P2;SDS_P1;SDS_P2;PMS_P1;PMS_P2;Temp;Humidity;BMP_temperature;BMP_pressure;BME280_temperature;BME280_humidity;BME280_pressure;Samples;Min_cycle;Max_cycle;Signal;HPM_P1;HPM_P2
2022/06/27 00:01:37;;;;;;;;;;;13.00;93.70;;;;;;5017292;28;20356;-75
2022/06/27 00:04:04;;;;;;;;;;;13.10;93.90;;;;;;5018618;28;19921;-76
2022/06/27 00:06:32;;;;;;;;;;;12.90;94.30;;;;;;5017189;28;19926;-76
2022/06/27 00:08:59;;;;;;;;;;;13.20;93.80;;;;;;5018683;28;20360;-77
2022/06/27 00:11:26;;;;;;;;;;;13.00;93.80;;;;;;5018282;28;19922;-75
2022/06/27 00:13:54;;;;;;;;;;;13.20;93.90;;;;;;5017189;28;19928;-76
2022/06/27 00:16:21;;;;;;;;;;;13.30;93.90;;;;;;5017166;28;19922;-76
2022/06/27 00:19:08;;;;;;;;;;;13.30;94.00;;;;;;5017124;28;20352;-76
2022/06/27 00:21:36;;;;;;;;;;;13.20;93.90;;;;;;5015711;28;19928;-75
2022/06/27 00:24:03;;;;;;;;;;;13.20;94.40;;;;;;5017168;28;20287;-75
2022/06/27 00:26:31;;;;;;;;;;;13.20;94.40;;;;;;5015750;28;19948;-78
2022/06/27 00:28:58;;;;;;;;;;;13.30;94.50;;;;;;5016544;28;19922;-75
2022/06/27 00:31:25;;;;;;;;;;;13.30;94.60;;;;;;4999504;28;19940;-75
2022/06/27 00:33:53;;;;;;;;;;;13.30;94.60;;;;;;4998462;28;19921;-77
2022/06/27 00:36:20;;;;;;;;;;;13.40;94.40;;;;;;5016639;28;19921;-75
2022/06/27 00:38:48;;;;;;;;;;;13.30;94.40;;;;;;4983431;28;19921;-78
2022/06/27 00:41:15;;;;;;;;;;;13.30;94.60;;;;;;5016062;28;19941;-76
2022/06/27 00:43:44;;;;;;;;;;;13.40;94.60;;;;;;5016692;28;19925;-75
2022/06/27 00:46:12;;;;;;;;;;;13.40;94.60;;;;;;5016484;28;19933;-76
2022/06/27 00:48:39;;;;;;;;;;;13.50;94.50;;;;;;5016172;28;20295;-76
2022/06/27 00:51:07;;;;;;;;;;;13.50;94.60;;;;;;4999188;28;19948;-75
2022/06/27 00:53:34;;;;;;;;;;;13.50;94.70;;;;;;5015502;28;19921;-75
2022/06/27 00:56:02;;;;;;;;;;;13.60;94.80;;;;;;5016379;28;19921;-75
2022/06/27 00:58:29;;;;;;;;;;;13.50;94.70;;;;;;4999328;28;19921;-78
2022/06/27 01:00:56;;;;;;;;;;;13.60;94.70;;;;;;4998159;28;20263;-78
2022/06/27 01:03:24;;;;;;;;;;;13.50;94.70;;;;;;4999556;28;19932;-76
2022/06/27 01:05:51;;;;;;;;;;;13.60;94.70;;;;;;4999196;28;20371;-75
2022/06/27 01:08:19;;;;;;;;;;;13.60;94.70;;;;;;4998096;28;19929;-76
2022/06/27 01:10:47;;;;;;;;;;;13.60;94.70;;;;;;4999191;28;19922;-78
2022/06/27 01:13:15;;;;;;;;;;;13.60;94.70;;;;;;5015276;28;20211;-75
2022/06/27 01:15:43;;;;;;;;;;;13.60;94.70;;;;;;4980378;28;1501572;-78
2022/06/27 01:18:11;;;;;;;;;;;13.70;95.00;;;;;;5019670;28;19928;-76
2022/06/27 01:20:41;;;;;;;;;;;13.60;95.20;;;;;;5035612;28;19921;-77
2022/06/27 01:23:10;;;;;;;;;;;13.70;94.90;;;;;;5036900;28;20267;-78
2022/06/27 01:25:37;;;;;;;;;;;13.70;94.80;;;;;;5035998;28;19939;-76
2022/06/27 01:28:07;;;;;;;;;;;13.70;95.00;;;;;;5035494;28;19930;-75
2022/06/27 01:30:35;;;;;;;;;;;13.70;95.00;;;;;;5036121;28;19928;-75
2022/06/27 01:33:03;;;;;;;;;;;13.70;95.10;;;;;;5035053;28;19932;-77
2022/06/27 01:35:34;;;;;;;;;;;13.80;95.10;;;;;;5018928;28;19931;-78
2022/06/27 01:38:03;;;;;;;;;;;13.80;95.00;;;;;;5035772;28;20300;-77
2022/06/27 01:40:31;;;;;;;;;;;13.80;95.00;;;;;;5033715;28;20328;-78
2022/06/27 01:42:59;;;;;;;;;;;13.80;94.90;;;;;;5035421;28;19928;-78
2022/06/27 01:45:29;;;;;;;;;;;13.90;95.00;;;;;;5035300;28;19928;-77
2022/06/27 01:47:57;;;;;;;;;;;13.90;95.20;;;;;;5034370;28;19921;-77
2022/06/27 01:50:29;;;;;;;;;;;13.90;94.90;;;;;;5018764;28;20263;-78
2022/06/27 01:52:59;;;;;;;;;;;13.90;95.00;;;;;;5034321;28;19928;-77
2022/06/27 01:55:26;;;;;;;;;;;13.90;95.00;;;;;;5035187;28;20386;-78
2022/06/27 01:57:54;;;;;;;;;;;13.80;94.80;;;;;;5036307;28;20379;-77
2022/06/27 02:00:22;;;;;;;;;;;13.80;95.10;;;;;;5034042;28;20344;-78
2022/06/27 02:02:59;;;;;;;;;;;13.70;95.30;;;;;;5035961;28;19921;-78
2022/06/27 02:05:33;;;;;;;;;;;13.60;95.10;;;;;;5034980;28;19921;-78
2022/06/27 02:08:02;;;;;;;;;;;13.60;95.20;;;;;;5033954;28;20406;-78
2022/06/27 02:10:29;;;;;;;;;;;13.50;95.50;;;;;;5034995;28;19921;-78
2022/06/27 02:12:57;;;;;;;;;;;13.50;95.50;;;;;;5033923;28;19921;-79
2022/06/27 02:15:24;;;;;;;;;;;13.40;95.70;;;;;;5034684;28;20237;-78
2022/06/27 02:17:51;;;;;;;;;;;13.40;95.90;;;;;;5034726;28;19921;-78
2022/06/27 02:20:21;;;;;;;;;;;13.20;95.80;;;;;;5033772;28;20331;-78
2022/06/27 02:22:49;;;;;;;;;;;13.20;96.20;;;;;;5035533;28;19939;-77
2022/06/27 02:25:17;;;;;;;;;;;13.10;96.30;;;;;;5018638;28;19932;-78
2022/06/27 02:27:45;;;;;;;;;;;14.20;96.80;;;;;;5033588;28;19921;-77
2022/06/27 02:30:17;;;;;;;;;;;12.90;96.70;;;;;;5034826;28;19921;-78
2022/06/27 02:32:44;;;;;;;;;;;12.80;96.80;;;;;;5034616;28;20278;-77
2022/06/27 02:35:12;;;;;;;;;;;12.70;96.90;;;;;;5034380;28;20355;-78
2022/06/27 02:37:40;;;;;;;;;;;12.70;97.20;;;;;;5034764;28;19921;-78
2022/06/27 02:40:09;;;;;;;;;;;12.60;97.40;;;;;;5034408;28;19921;-77
2022/06/27 02:42:37;;;;;;;;;;;12.60;97.80;;;;;;5034373;28;19935;-77
2022/06/27 02:45:04;;;;;;;;;;;12.60;97.60;;;;;;5034520;28;19933;-77
2022/06/27 02:47:33;;;;;;;;;;;12.50;97.80;;;;;;5033716;28;19932;-77
2022/06/27 02:50:01;;;;;;;;;;;12.50;98.30;;;;;;5034988;28;19921;-77
2022/06/27 02:52:38;;;;;;;;;;;12.50;98.30;;;;;;5034693;28;19921;-77
2022/06/27 02:55:08;;;;;;;;;;;12.40;98.30;;;;;;5033280;28;20348;-77
2022/06/27 02:58:20;;;;;;;;;;;12.40;98.00;;;;;;5034624;28;19928;-77
2022/06/27 03:00:48;;;;;;;;;;;12.30;98.30;;;;;;4957692;28;19922;-77
2022/06/27 03:03:16;;;;;;;;;;;12.20;98.30;;;;;;5020744;28;19932;-77
2022/06/27 03:05:55;;;;;;;;;;;12.20;98.50;;;;;;5034255;28;20271;-77
2022/06/27 03:08:23;;;;;;;;;;;12.10;98.30;;;;;;5033478;28;19928;-77
2022/06/27 03:10:50;;;;;;;;;;;11.90;98.80;;;;;;5034162;28;19928;-77
2022/06/27 03:13:17;;;;;;;;;;;12.10;99.20;;;;;;5033245;28;20363;-77
2022/06/27 03:15:45;;;;;;;;;;;12.00;99.00;;;;;;5017487;28;19921;-77
2022/06/27 03:18:13;;;;;;;;;;;12.00;99.20;;;;;;5034182;28;20354;-77
2022/06/27 03:21:11;;;;;;;;;;;12.00;99.80;;;;;;5020536;28;19943;-78
2022/06/27 03:23:40;;;;;;;;;;;11.90;99.90;;;;;;5034199;28;19921;-78
2022/06/27 03:26:08;;;;;;;;;;;12.00;99.90;;;;;;5034174;28;20260;-77
2022/06/27 03:28:35;;;;;;;;;;;11.90;99.90;;;;;;5033890;28;19921;-77
2022/06/27 03:31:03;;;;;;;;;;;11.90;99.90;;;;;;5034788;28;19921;-78
2022/06/27 03:33:37;;;;;;;;;;;11.90;99.90;;;;;;5033146;28;19928;-77
2022/06/27 03:36:28;;;;;;;;;;;11.80;99.90;;;;;;5033923;28;19921;-76
2022/06/27 03:38:56;;;;;;;;;;;11.60;99.90;;;;;;5033793;28;19925;-77
2022/06/27 03:41:25;;;;;;;;;;;11.80;99.90;;;;;;5032930;28;20347;-77
2022/06/27 03:43:52;;;;;;;;;;;11.80;99.90;;;;;;5033925;28;19921;-78
2022/06/27 03:46:21;;;;;;;;;;;11.80;99.90;;;;;;5033088;28;19921;-77
2022/06/27 03:51:36;;;;;;;;;;;11.70;99.90;;;;;;5034454;28;20283;-77
2022/06/27 03:54:04;;;;;;;;;;;11.80;99.90;;;;;;5032672;28;20347;-77
2022/06/27 03:56:32;;;;;;;;;;;11.80;99.90;;;;;;5034016;28;19936;-77
2022/06/27 03:58:59;;;;;;;;;;;11.80;99.90;;;;;;5017177;28;19920;-78
2022/06/27 04:01:27;;;;;;;;;;;10.60;99.90;;;;;;5032780;28;19928;-77
2022/06/27 04:03:54;;;;;;;;;;;11.80;99.90;;;;;;5020651;28;19925;-77
2022/06/27 04:06:23;;;;;;;;;;;11.80;99.90;;;;;;5036366;28;19925;-78
2022/06/27 04:08:54;;;;;;;;;;;11.80;99.90;;;;;;5037935;28;19953;-78
2022/06/27 04:11:21;;;;;;;;;;;11.80;99.90;;;;;;5037242;28;19929;-77
2022/06/27 04:13:52;;;;;;;;;;;11.80;99.90;;;;;;5034877;28;19921;-78
2022/06/27 04:16:19;;;;;;;;;;;11.80;99.90;;;;;;5018227;28;19929;-77
2022/06/27 04:19:12;;;;;;;;;;;11.90;99.90;;;;;;5018584;28;19921;-76
2022/06/27 04:21:42;;;;;;;;;;;11.80;99.90;;;;;;5017033;28;19929;-78
2022/06/27 04:24:32;;;;;;;;;;;11.80;99.90;;;;;;5010092;28;19921;-77
2022/06/27 04:27:00;;;;;;;;;;;11.70;99.90;;;;;;4999887;28;20371;-77
2022/06/27 04:29:28;;;;;;;;;;;12.00;99.90;;;;;;4984743;28;19928;-78
2022/06/27 04:31:56;;;;;;;;;;;12.00;99.90;;;;;;5000793;28;19921;-78
2022/06/27 04:34:24;;;;;;;;;;;13.70;99.90;;;;;;4999943;28;19921;-77
2022/06/27 04:36:52;;;;;;;;;;;12.00;99.90;;;;;;5000803;28;20027;-76
2022/06/27 04:39:21;;;;;;;;;;;12.00;99.90;;;;;;5000753;28;19929;-78
2022/06/27 04:41:57;;;;;;;;;;;12.10;99.90;;;;;;4999560;28;19928;-78
2022/06/27 04:44:25;;;;;;;;;;;12.10;99.90;;;;;;5000570;28;20272;-78
2022/06/27 04:46:54;;;;;;;;;;;12.20;99.90;;;;;;4999330;28;19932;-76
2022/06/27 04:49:33;;;;;;;;;;;12.20;99.90;;;;;;5000555;28;19928;-78
2022/06/27 04:52:01;;;;;;;;;;;12.20;99.90;;;;;;5000269;28;19922;-78
2022/06/27 04:54:29;;;;;;;;;;;12.40;99.90;;;;;;4999481;28;19921;-78
2022/06/27 04:56:56;;;;;;;;;;;12.30;99.90;;;;;;5000452;28;19944;-77
2022/06/27 04:59:24;;;;;;;;;;;12.30;99.90;;;;;;5000217;28;19928;-77
2022/06/27 05:02:04;;;;;;;;;;;12.30;99.90;;;;;;5000486;28;19925;-77
2022/06/27 05:04:32;;;;;;;;;;;11.80;99.90;;;;;;5000358;28;19928;-78
2022/06/27 05:07:01;;;;;;;;;;;12.40;99.90;;;;;;5016158;28;19921;-78
2022/06/27 05:09:29;;;;;;;;;;;13.50;99.90;;;;;;5000175;28;19921;-77
2022/06/27 05:11:56;;;;;;;;;;;12.50;99.90;;;;;;5000279;28;19921;-77
2022/06/27 05:14:24;;;;;;;;;;;12.50;99.90;;;;;;5005014;28;19928;-77
2022/06/27 05:16:55;;;;;;;;;;;12.40;99.90;;;;;;5036235;28;20363;-77
2022/06/27 05:19:27;;;;;;;;;;;12.40;99.90;;;;;;5052645;28;19925;-76
2022/06/27 05:21:54;;;;;;;;;;;12.50;99.90;;;;;;5018544;28;19920;-77
2022/06/27 05:24:24;;;;;;;;;;;12.50;99.90;;;;;;5036286;28;19921;-78
2022/06/27 05:26:53;;;;;;;;;;;12.50;99.90;;;;;;5035601;28;19921;-77
2022/06/27 05:29:21;;;;;;;;;;;12.50;99.90;;;;;;5035956;28;19921;-78
2022/06/27 05:31:49;;;;;;;;;;;12.60;99.90;;;;;;5035711;28;19921;-78
2022/06/27 05:34:18;;;;;;;;;;;12.70;99.90;;;;;;5034831;28;19921;-77
2022/06/27 05:36:45;;;;;;;;;;;12.80;99.90;;;;;;5036021;28;19936;-78
2022/06/27 05:39:14;;;;;;;;;;;12.90;99.90;;;;;;5035720;28;20333;-77
2022/06/27 05:41:43;;;;;;;;;;;12.90;99.90;;;;;;5034437;28;19940;-78
2022/06/27 05:44:16;;;;;;;;;;;12.90;99.90;;;;;;5035571;28;19936;-77
2022/06/27 05:46:43;;;;;;;;;;;13.00;99.90;;;;;;5034353;28;19921;-77
2022/06/27 05:49:39;;;;;;;;;;;13.10;99.90;;;;;;5018929;28;19921;-78
2022/06/27 05:52:08;;;;;;;;;;;13.20;99.90;;;;;;5035447;28;19929;-77
2022/06/27 05:54:37;;;;;;;;;;;14.00;99.90;;;;;;5034223;28;19928;-78
2022/06/27 05:57:11;;;;;;;;;;;13.30;99.90;;;;;;5018640;28;19935;-78
2022/06/27 05:59:40;;;;;;;;;;;12.60;99.90;;;;;;5034758;28;19921;-78
2022/06/27 06:02:07;;;;;;;;;;;13.40;99.90;;;;;;5035427;28;19921;-78
2022/06/27 06:04:38;;;;;;;;;;;13.50;99.90;;;;;;5019993;28;19921;-77
2022/06/27 06:07:09;;;;;;;;;;;14.00;99.90;;;;;;5017661;28;19932;-78
2022/06/27 06:09:38;;;;;;;;;;;13.60;99.90;;;;;;5034973;28;19921;-78
2022/06/27 06:12:09;;;;;;;;;;;13.70;99.90;;;;;;5035181;28;19928;-77
2022/06/27 06:14:43;;;;;;;;;;;14.00;99.90;;;;;;5034066;28;19928;-77
2022/06/27 06:17:12;;;;;;;;;;;13.80;99.90;;;;;;5018860;28;19921;-79
2022/06/27 06:19:43;;;;;;;;;;;14.00;99.90;;;;;;5034729;28;19928;-78
2022/06/27 06:22:12;;;;;;;;;;;14.00;99.90;;;;;;5019294;28;19932;-78
2022/06/27 06:24:39;;;;;;;;;;;14.10;99.90;;;;;;5018497;28;19921;-79
2022/06/27 06:27:09;;;;;;;;;;;14.10;99.90;;;;;;5033673;28;19921;-79
2022/06/27 06:29:37;;;;;;;;;;;14.30;99.60;;;;;;5034764;28;19921;-78
2022/06/27 06:32:06;;;;;;;;;;;14.40;99.70;;;;;;5034688;28;19925;-78
2022/06/27 06:34:35;;;;;;;;;;;14.50;99.70;;;;;;5033605;28;19925;-78
2022/06/27 06:37:05;;;;;;;;;;;14.60;99.30;;;;;;5034952;28;19924;-79
2022/06/27 06:39:40;;;;;;;;;;;14.70;99.10;;;;;;5033774;28;19921;-78
2022/06/27 06:42:07;;;;;;;;;;;14.60;98.80;;;;;;5034127;28;19921;-78
2022/06/27 06:44:46;;;;;;;;;;;14.70;98.70;;;;;;5034265;28;19936;-78
2022/06/27 06:47:44;;;;;;;;;;;14.80;98.40;;;;;;5033935;28;20344;-79
2022/06/27 06:50:18;;;;;;;;;;;14.80;97.80;;;;;;5034238;28;20283;-75
2022/06/27 06:52:52;;;;;;;;;;;14.90;97.30;;;;;;5034796;28;19928;-78
2022/06/27 06:55:24;;;;;;;;;;;14.90;96.80;;;;;;5034276;28;19921;-78
2022/06/27 06:57:51;;;;;;;;;;;17.10;97.40;;;;;;5033182;28;20348;-77
2022/06/27 07:00:19;;;;;;;;;;;15.00;97.00;;;;;;5033748;28;19921;-77
2022/06/27 07:02:50;;;;;;;;;;;14.90;94.70;;;;;;5034818;28;19920;-78
2022/06/27 07:05:19;;;;;;;;;;;15.50;95.70;;;;;;5033863;28;19932;-76
2022/06/27 07:07:50;;;;;;;;;;;15.20;94.10;;;;;;5032867;28;19928;-76
2022/06/27 07:10:18;;;;;;;;;;;15.20;93.80;;;;;;5034491;28;19921;-77
2022/06/27 07:12:51;;;;;;;;;;;15.20;93.50;;;;;;5034739;28;19921;-76
2022/06/27 07:15:19;;;;;;;;;;;14.40;93.40;;;;;;5020847;28;19921;-76
2022/06/27 07:17:48;;;;;;;;;;;15.30;94.00;;;;;;5014862;28;19928;-76
2022/06/27 07:20:20;;;;;;;;;;;15.40;93.50;;;;;;5013928;28;19921;-76
2022/06/27 07:22:50;;;;;;;;;;;15.40;93.80;;;;;;5014955;28;19932;-78
2022/06/27 07:25:18;;;;;;;;;;;17.80;93.90;;;;;;4997369;28;19929;-79
2022/06/27 07:27:46;;;;;;;;;;;15.60;93.90;;;;;;5013107;28;20375;-78
2022/06/27 07:30:14;;;;;;;;;;;15.50;93.60;;;;;;5014831;28;20356;-78
2022/06/27 07:32:42;;;;;;;;;;;15.60;93.80;;;;;;4997513;28;20336;-78
2022/06/27 07:35:11;;;;;;;;;;;15.70;93.40;;;;;;5013613;28;19929;-78
2022/06/27 07:37:48;;;;;;;;;;;15.80;93.20;;;;;;5016294;28;19936;-79
2022/06/27 07:40:17;;;;;;;;;;;15.80;92.80;;;;;;5017378;28;19925;-79
2022/06/27 07:42:47;;;;;;;;;;;15.90;92.70;;;;;;5018599;28;20344;-77
2022/06/27 07:45:23;;;;;;;;;;;15.90;92.70;;;;;;5018703;28;19921;-79
2022/06/27 07:47:52;;;;;;;;;;;15.90;92.00;;;;;;5017435;28;19929;-78
2022/06/27 07:50:37;;;;;;;;;;;15.90;92.30;;;;;;5018469;28;19921;-77
2022/06/27 07:53:12;;;;;;;;;;;15.70;91.90;;;;;;4984126;28;19937;-77
2022/06/27 07:55:43;;;;;;;;;;;15.90;91.90;;;;;;4984711;28;19951;-77
2022/06/27 07:58:14;;;;;;;;;;;15.90;91.80;;;;;;5018417;28;19928;-77
2022/06/27 08:00:45;;;;;;;;;;;15.90;91.90;;;;;;5017338;28;19922;-77
2022/06/27 08:06:00;;;;;;;;;;;15.90;92.00;;;;;;5018118;28;19921;-82
2022/06/27 08:08:32;;;;;;;;;;;16.00;92.60;;;;;;4983580;28;19926;-78
2022/06/27 08:11:00;;;;;;;;;;;16.00;92.20;;;;;;5018078;28;19921;-76
2022/06/27 08:13:31;;;;;;;;;;;15.90;91.70;;;;;;4999576;28;19922;-76
2022/06/27 08:15:59;;;;;;;;;;;15.90;91.20;;;;;;5033621;28;19921;-74
2022/06/27 08:18:28;;;;;;;;;;;15.90;91.40;;;;;;5037665;28;19921;-76
2022/06/27 08:20:55;;;;;;;;;;;15.90;91.50;;;;;;5035863;28;19925;-75
2022/06/27 08:23:22;;;;;;;;;;;15.90;91.70;;;;;;5037373;28;19921;-76
2022/06/27 08:25:52;;;;;;;;;;;15.90;91.70;;;;;;5037570;28;20282;-76
2022/06/27 08:28:20;;;;;;;;;;;15.90;91.10;;;;;;5036435;28;19932;-74
2022/06/27 08:30:48;;;;;;;;;;;16.00;91.80;;;;;;5036352;28;19921;-74
2022/06/27 08:33:16;;;;;;;;;;;16.00;90.90;;;;;;5035440;28;19925;-77
2022/06/27 08:35:47;;;;;;;;;;;16.10;90.70;;;;;;5036379;28;19928;-77
2022/06/27 08:38:16;;;;;;;;;;;14.60;89.70;;;;;;5037271;28;19928;-76
2022/06/27 08:40:45;;;;;;;;;;;16.30;90.50;;;;;;5036332;28;19921;-77
2022/06/27 08:43:14;;;;;;;;;;;16.40;90.00;;;;;;5037231;28;20351;-76
2022/06/27 08:45:44;;;;;;;;;;;16.60;90.20;;;;;;5036194;28;19921;-75
2022/06/27 08:48:13;;;;;;;;;;;16.80;89.80;;;;;;5035875;28;19928;-76
2022/06/27 08:50:41;;;;;;;;;;;17.20;88.50;;;;;;5036210;28;19921;-75
2022/06/27 08:53:10;;;;;;;;;;;17.60;87.20;;;;;;5035841;28;19921;-77
2022/06/27 08:55:37;;;;;;;;;;;18.00;86.80;;;;;;5036829;28;19921;-76
2022/06/27 08:58:11;;;;;;;;;;;17.40;85.40;;;;;;5036862;28;19928;-77
2022/06/27 09:00:41;;;;;;;;;;;18.60;83.80;;;;;;5035099;28;19932;-76
2022/06/27 09:03:09;;;;;;;;;;;18.90;83.30;;;;;;5036881;28;19921;-77
2022/06/27 09:05:37;;;;;;;;;;;19.00;82.00;;;;;;5035988;28;19921;-74
2022/06/27 09:08:06;;;;;;;;;;;19.00;81.30;;;;;;5035456;28;19932;-73
2022/06/27 09:10:34;;;;;;;;;;;19.00;80.90;;;;;;5036579;28;19921;-76
2022/06/27 09:13:09;;;;;;;;;;;19.20;80.10;;;;;;5035972;28;19936;-74
2022/06/27 09:15:55;;;;;;;;;;;19.40;79.10;;;;;;5021379;28;20000;-74
2022/06/27 09:18:27;;;;;;;;;;;19.50;76.30;;;;;;5017744;28;19929;-72
2022/06/27 09:20:57;;;;;;;;;;;19.50;75.20;;;;;;5030300;28;19925;-77
2022/06/27 09:23:50;;;;;;;;;;;19.50;76.00;;;;;;5016405;28;20356;-76
2022/06/27 09:26:19;;;;;;;;;;;19.50;77.50;;;;;;5034646;28;20023;-76
2022/06/27 09:28:59;;;;;;;;;;;19.50;77.10;;;;;;5036339;28;19947;-76
2022/06/27 09:31:32;;;;;;;;;;;19.40;74.00;;;;;;5018815;28;19925;-75
2022/06/27 09:34:18;;;;;;;;;;;19.40;72.80;;;;;;5017610;28;19932;-74
2022/06/27 09:36:50;;;;;;;;;;;19.50;73.80;;;;;;5035787;28;19928;-74
2022/06/27 09:39:19;;;;;;;;;;;19.60;73.20;;;;;;5036059;28;19921;-75
2022/06/27 09:41:50;;;;;;;;;;;19.50;73.30;;;;;;5030544;28;20359;-72
2022/06/27 09:44:21;;;;;;;;;;;20.00;73.50;;;;;;5015294;28;20370;-75
2022/06/27 09:46:51;;;;;;;;;;;20.10;73.30;;;;;;5014080;28;19921;-73
2022/06/27 09:49:19;;;;;;;;;;;20.10;72.20;;;;;;5016338;28;19922;-75
2022/06/27 09:51:48;;;;;;;;;;;20.10;74.20;;;;;;5015975;28;19925;-75
2022/06/27 09:54:16;;;;;;;;;;;20.10;71.80;;;;;;5014944;28;19922;-76
2022/06/27 09:56:45;;;;;;;;;;;20.00;72.50;;;;;;4999009;28;19921;-75
2022/06/27 09:59:12;;;;;;;;;;;19.90;72.40;;;;;;4998921;28;19997;-76
2022/06/27 10:01:41;;;;;;;;;;;19.70;73.10;;;;;;4997344;28;19941;-75
2022/06/27 10:04:09;;;;;;;;;;;19.70;72.60;;;;;;5016193;28;19928;-76
2022/06/27 10:06:40;;;;;;;;;;;19.80;73.40;;;;;;5015134;28;19936;-75
2022/06/27 10:09:09;;;;;;;;;;;19.80;73.00;;;;;;5016712;28;19928;-72
2022/06/27 10:11:37;;;;;;;;;;;19.80;73.30;;;;;;5016264;28;19935;-76
2022/06/27 10:14:20;;;;;;;;;;;19.70;72.90;;;;;;5014954;28;19925;-75
2022/06/27 10:16:58;;;;;;;;;;;19.70;72.70;;;;;;4998889;28;19921;-76
2022/06/27 10:19:27;;;;;;;;;;;19.60;73.70;;;;;;5015919;28;20249;-76
2022/06/27 10:21:55;;;;;;;;;;;19.50;73.90;;;;;;5014716;28;20363;-76
2022/06/27 10:24:23;;;;;;;;;;;19.50;73.90;;;;;;5016262;28;19928;-76
2022/06/27 10:26:52;;;;;;;;;;;19.50;73.10;;;;;;5014999;28;19922;-75
2022/06/27 10:29:45;;;;;;;;;;;19.40;73.80;;;;;;4998735;28;19921;-75
2022/06/27 10:32:31;;;;;;;;;;;19.40;73.60;;;;;;5015910;28;19921;-76
2022/06/27 10:35:01;;;;;;;;;;;19.50;73.30;;;;;;5014721;28;19921;-75
2022/06/27 10:37:29;;;;;;;;;;;19.70;73.40;;;;;;5015970;28;20348;-76
2022/06/27 10:40:19;;;;;;;;;;;19.90;73.50;;;;;;5014452;28;19948;-76
2022/06/27 10:42:47;;;;;;;;;;;20.10;72.50;;;;;;4979750;28;19925;-76
2022/06/27 10:45:21;;;;;;;;;;;20.20;73.40;;;;;;5015693;28;19922;-76
2022/06/27 10:47:53;;;;;;;;;;;20.30;72.50;;;;;;5014508;28;20348;-75
2022/06/27 10:50:22;;;;;;;;;;;20.40;74.10;;;;;;5015422;28;19921;-73
2022/06/27 10:52:49;;;;;;;;;;;20.40;72.30;;;;;;4982798;28;19921;-75
2022/06/27 10:55:24;;;;;;;;;;;20.40;72.80;;;;;;5014295;28;19926;-76
2022/06/27 10:57:53;;;;;;;;;;;20.40;72.90;;;;;;5015838;28;19928;-75
2022/06/27 11:00:39;;;;;;;;;;;20.50;72.00;;;;;;5014512;28;20287;-75
2022/06/27 11:03:08;;;;;;;;;;;20.50;72.60;;;;;;4998388;28;19921;-75
2022/06/27 11:05:54;;;;;;;;;;;20.40;72.80;;;;;;5015509;28;19921;-73
2022/06/27 11:08:22;;;;;;;;;;;20.20;72.50;;;;;;4997168;28;20256;-73
2022/06/27 11:10:50;;;;;;;;;;;20.00;73.70;;;;;;4998276;28;19922;-75
2022/06/27 11:13:36;;;;;;;;;;;20.00;74.30;;;;;;5018198;28;19921;-76
2022/06/27 11:16:04;;;;;;;;;;;19.90;75.20;;;;;;5019167;28;19933;-76
2022/06/27 11:18:41;;;;;;;;;;;20.10;75.20;;;;;;5002612;28;19928;-76
2022/06/27 11:21:10;;;;;;;;;;;20.40;73.90;;;;;;5018275;28;19929;-76
2022/06/27 11:23:49;;;;;;;;;;;20.70;73.50;;;;;;5001936;28;19925;-76
2022/06/27 11:26:18;;;;;;;;;;;20.80;72.90;;;;;;5018047;28;19925;-76
2022/06/27 11:34:29;;;;;;;;;;;20.70;73.10;;;;;;5000107;28;20253;-76
2022/06/27 11:37:08;;;;;;;;;;;20.60;73.30;;;;;;5019118;28;19925;-85
2022/06/27 11:39:36;;;;;;;;;;;20.60;73.30;;;;;;5034433;28;19921;-77
2022/06/27 11:42:10;;;;;;;;;;;20.70;73.70;;;;;;5037419;28;19925;-78
2022/06/27 11:44:56;;;;;;;;;;;20.90;73.00;;;;;;5037044;28;19925;-77
2022/06/27 11:47:27;;;;;;;;;;;21.20;72.40;;;;;;5019904;28;19928;-79
2022/06/27 11:50:04;;;;;;;;;;;21.60;71.00;;;;;;5037053;28;19928;-77
2022/06/27 11:52:37;;;;;;;;;;;21.80;69.80;;;;;;5037310;28;20000;-77
2022/06/27 11:55:15;;;;;;;;;;;22.00;69.90;;;;;;5036997;28;19925;-77
2022/06/27 11:57:54;;;;;;;;;;;22.30;71.40;;;;;;5020421;28;20237;-76
2022/06/27 12:00:26;;;;;;;;;;;22.40;70.90;;;;;;5036590;28;19921;-78
2022/06/27 12:03:06;;;;;;;;;;;22.60;71.90;;;;;;5020336;28;19932;-78
2022/06/27 12:05:35;;;;;;;;;;;22.70;71.50;;;;;;5020550;28;19944;-77
2022/06/27 12:08:10;;;;;;;;;;;22.80;69.70;;;;;;5036722;28;19921;-77
2022/06/27 12:10:44;;;;;;;;;;;22.90;70.10;;;;;;5037798;28;19928;-78
2022/06/27 12:13:13;;;;;;;;;;;22.70;71.30;;;;;;5036804;28;20264;-76
2022/06/27 12:15:42;;;;;;;;;;;21.40;70.10;;;;;;5048036;28;19943;-77
2022/06/27 12:18:12;;;;;;;;;;;22.50;70.70;;;;;;5057373;28;19921;-77
2022/06/27 12:20:42;;;;;;;;;;;22.40;70.80;;;;;;5055670;28;19921;-78
2022/06/27 12:23:14;;;;;;;;;;;22.30;71.40;;;;;;5056736;28;19928;-77
2022/06/27 12:25:42;;;;;;;;;;;22.40;73.50;;;;;;5056317;28;19920;-78
2022/06/27 12:28:10;;;;;;;;;;;22.50;71.90;;;;;;5055191;28;19921;-77
2022/06/27 12:30:37;;;;;;;;;;;22.80;72.70;;;;;;5057178;28;19921;-77
2022/06/27 12:33:07;;;;;;;;;;;23.00;73.60;;;;;;5055335;28;19924;-78
2022/06/27 12:35:36;;;;;;;;;;;23.00;71.60;;;;;;5056119;28;19920;-77
2022/06/27 12:38:07;;;;;;;;;;;23.20;70.30;;;;;;5057274;28;20354;-78
2022/06/27 12:40:35;;;;;;;;;;;23.00;70.40;;;;;;5055297;28;19928;-78
2022/06/27 12:43:03;;;;;;;;;;;22.80;71.20;;;;;;5056802;28;20232;-77
2022/06/27 12:45:32;;;;;;;;;;;22.70;71.30;;;;;;5057057;28;20331;-77
2022/06/27 12:48:04;;;;;;;;;;;22.30;71.30;;;;;;5055958;28;20279;-77
2022/06/27 12:50:42;;;;;;;;;;;22.70;71.70;;;;;;5056898;28;19927;-75
2022/06/27 12:53:10;;;;;;;;;;;22.80;71.90;;;;;;5055937;28;19921;-76
2022/06/27 12:55:37;;;;;;;;;;;22.70;70.50;;;;;;5055662;28;19931;-76
2022/06/27 12:58:05;;;;;;;;;;;23.10;70.80;;;;;;5056506;28;19920;-75
2022/06/27 13:00:33;;;;;;;;;;;23.00;70.80;;;;;;5055859;28;19921;-76
2022/06/27 13:03:01;;;;;;;;;;;22.90;70.80;;;;;;5056654;28;19921;-76
2022/06/27 13:05:35;;;;;;;;;;;22.80;71.30;;;;;;5056619;28;19992;-76
2022/06/27 13:08:04;;;;;;;;;;;22.70;71.10;;;;;;5055435;28;19928;-76
2022/06/27 13:10:38;;;;;;;;;;;22.80;71.50;;;;;;5056784;28;20344;-76
2022/06/27 13:13:05;;;;;;;;;;;22.90;71.30;;;;;;5054803;28;19995;-76
2022/06/27 13:15:34;;;;;;;;;;;23.00;70.90;;;;;;5041600;28;19921;-76
2022/06/27 13:18:02;;;;;;;;;;;23.20;71.00;;;;;;5035979;28;19928;-76
2022/06/27 13:20:30;;;;;;;;;;;23.40;72.70;;;;;;5018245;28;19921;-76
2022/06/27 13:22:58;;;;;;;;;;;23.60;69.30;;;;;;5036306;28;20212;-74
2022/06/27 13:25:25;;;;;;;;;;;23.80;69.10;;;;;;5036314;28;19921;-76
2022/06/27 13:27:53;;;;;;;;;;;24.20;67.70;;;;;;5017952;28;19940;-76
2022/06/27 13:30:20;;;;;;;;;;;24.60;67.30;;;;;;5036259;28;20263;-76
2022/06/27 13:32:48;;;;;;;;;;;24.00;67.00;;;;;;5018393;28;20293;-76
2022/06/27 13:35:15;;;;;;;;;;;26.30;66.40;;;;;;5034002;28;19921;-76
2022/06/27 13:37:43;;;;;;;;;;;26.70;64.60;;;;;;5036378;28;19921;-76
2022/06/27 13:40:11;;;;;;;;;;;27.70;62.60;;;;;;5001240;28;19921;-74
2022/06/27 13:42:38;;;;;;;;;;;27.70;59.60;;;;;;5036088;28;19925;-76
2022/06/27 13:45:07;;;;;;;;;;;27.80;60.00;;;;;;5035894;28;19928;-77
2022/06/27 13:47:34;;;;;;;;;;;28.40;59.70;;;;;;5034749;28;19924;-76
2022/06/27 13:50:03;;;;;;;;;;;29.40;59.10;;;;;;5035856;28;19928;-76
2022/06/27 13:52:31;;;;;;;;;;;29.20;58.20;;;;;;5018680;28;19940;-74
2022/06/27 13:54:59;;;;;;;;;;;28.40;59.10;;;;;;5034790;28;19947;-75
2022/06/27 13:57:29;;;;;;;;;;;27.80;60.30;;;;;;5035600;28;19925;-76
2022/06/27 13:59:56;;;;;;;;;;;27.60;60.40;;;;;;5034032;28;20267;-73
2022/06/27 14:02:25;;;;;;;;;;;27.00;60.40;;;;;;5014260;28;19921;-83
2022/06/27 14:05:20;;;;;;;;;;;26.30;61.00;;;;;;5033357;28;19940;-87
2022/06/27 14:07:48;;;;;;;;;;;25.50;63.50;;;;;;5031343;28;19929;-78
2022/06/27 14:10:20;;;;;;;;;;;24.80;63.50;;;;;;5034366;28;19921;-76
2022/06/27 14:12:49;;;;;;;;;;;24.00;64.90;;;;;;5034142;28;19928;-78
2022/06/27 14:15:24;;;;;;;;;;;23.50;65.80;;;;;;5034568;28;19920;-81
2022/06/27 14:17:58;;;;;;;;;;;23.00;67.20;;;;;;5036113;28;19920;-79
2022/06/27 14:20:59;;;;;;;;;;;21.60;68.40;;;;;;5010493;28;20011;-80
2022/06/27 14:23:48;;;;;;;;;;;21.20;73.80;;;;;;5034940;28;20387;-80
2022/06/27 14:26:17;;;;;;;;;;;20.30;76.20;;;;;;5035268;28;20378;-81
2022/06/27 14:29:06;;;;;;;;;;;19.50;82.70;;;;;;4979375;28;19928;-81
2022/06/27 14:31:33;;;;;;;;;;;17.20;86.60;;;;;;5035476;28;19943;-79
2022/06/27 14:34:02;;;;;;;;;;;17.80;91.70;;;;;;5034400;28;19921;-80
2022/06/27 14:36:29;;;;;;;;;;;14.50;99.90;;;;;;5001843;28;20359;-80
2022/06/27 14:39:07;;;;;;;;;;;15.90;99.90;;;;;;5034718;28;20386;-81
2022/06/27 14:41:34;;;;;;;;;;;15.70;99.90;;;;;;5016980;28;19928;-78
2022/06/27 14:44:02;;;;;;;;;;;15.90;99.90;;;;;;5004362;28;19932;-76
2022/06/27 14:46:30;;;;;;;;;;;15.40;99.90;;;;;;5014818;28;19921;-76
2022/06/27 14:48:57;;;;;;;;;;;15.50;99.90;;;;;;5013854;28;20257;-80